Latest Weather Observations for Goulburn Airport

IDN60901

Issued at 5:55 pm EST Friday 19 September 2014 (issued every 10 minutes, with the page automatically refreshed every 10 minutes)

About weather observations | Map of Canberra area stations | Latest observations for Canberra area | Other Formats
Station Details ID: 070330 Name: GOULBURN AIRPORT AWS Lat: -34.81 Lon: 149.73 Height: 640.0 m
Data from the previous 72 hours. | See also: Recent months at Goulburn Airport
Date/Time
EST
Tmp

°C
App
Tmp
°C
Dew
Point
°C
Rel
Hum
%
Delta-T

°C
Wind Press
QNH
hPa
Press
MSL
hPa
Rain
since
9 am
mm
Dir
 
Spd
km/h
Gust
km/h
Spd
kts
Gust
kts
19/05:30pm 11.6 6.4 0.1 45 4.9 W 17 22 9 12 1020.0 1020.0 0.0
19/05:00pm 12.8 6.1 -0.8 39 5.7 WNW 24 32 13 17 1019.5 1019.6 0.0
19/04:30pm 13.6 6.5 -1.2 36 6.2 W 26 32 14 17 1019.2 1019.2 0.0
19/04:00pm 14.3 8.0 -0.9 35 6.5 W 22 30 12 16 1019.0 1019.0 0.0
19/03:30pm 14.8 8.1 -0.9 34 6.7 W 24 28 13 15 1018.9 1018.9 0.0
19/03:00pm 14.8 8.1 -0.9 34 6.7 WNW 24 32 13 17 1019.0 1019.0 0.0
19/02:30pm 14.8 8.7 -2.1 31 7.1 WNW 20 30 11 16 1019.1 1019.1 0.0
19/02:00pm 14.2 8.2 -1.8 33 6.7 WNW 20 28 11 15 1019.4 1019.4 0.0
19/01:30pm 14.2 8.2 -1.8 33 6.7 W 20 30 11 16 1019.6 1019.7 0.0
19/01:00pm 13.8 8.4 1.5 43 5.5 WNW 19 32 10 17 1019.9 1019.9 0.0
19/12:30pm 13.7 8.2 2.0 45 5.3 W 20 28 11 15 1020.3 1020.3 0.0
19/12:00pm 12.8 8.0 2.6 50 4.6 WNW 17 24 9 13 1020.6 1020.6 0.0
19/11:30am 12.4 7.5 3.9 56 4.0 W 19 28 10 15 1021.1 1021.2 0.0
19/11:00am 11.7 6.5 2.7 54 4.1 W 19 26 10 14 1021.6 1021.6 0.0
19/10:30am 10.6 5.2 2.2 56 3.7 W 20 28 11 15 1021.8 1021.8 0.0
19/10:00am 9.9 4.1 2.3 59 3.3 W 22 30 12 16 1022.0 1022.0 0.0
19/09:30am 9.4 4.5 4.0 69 2.5 W 19 26 10 14 1022.2 1022.3 0.0
19/09:00am 8.3 3.9 2.8 68 2.4 W 15 20 8 11 1022.2 1022.3 0.0
19/08:30am 6.2 2.6 2.7 78 1.5 NNW 11 15 6 8 1022.3 1022.4 0.0
19/08:00am 4.8 0.7 2.3 84 1.0 NW 13 17 7 9 1022.2 1022.3 0.0
19/07:30am 2.8 0.0 1.9 94 0.4 N 6 13 3 7 1022.1 1022.1 0.0
19/07:00am -0.5 -2.6 -1.1 96 0.2 CALM 0 0 0 0 1022.0 1022.0 0.0
19/06:30am -3.0 -5.8 -3.7 95 0.1 SE 2 6 1 3 1021.8 1021.8 0.0
19/06:00am -3.8 -7.1 -4.8 93 0.2 SSE 4 7 2 4 1021.6 1021.6 0.0
19/05:30am -2.9 -5.4 -3.7 94 0.1 CALM 0 0 0 0 1021.2 1021.3 0.0
19/05:00am -3.2 -5.7 -4.3 92 0.2 CALM 0 0 0 0 1020.9 1021.0 0.0
19/04:30am -2.8 -6.4 -3.9 92 0.2 NNE 6 6 3 3 1020.7 1020.7 0.0
19/04:00am -2.5 -5.0 -3.6 92 0.3 CALM 0 0 0 0 1020.6 1020.6 0.0
19/03:30am -1.1 -3.7 -1.9 94 0.2 NNE 2 6 1 3 1020.5 1020.5 0.0
19/03:00am -1.0 -4.0 -2.1 92 0.3 NNE 4 9 2 5 1020.6 1020.6 0.0
19/02:30am -0.2 -2.4 -1.2 93 0.4 CALM 0 0 0 0 1020.5 1020.5 0.0
19/02:00am -0.3 -3.8 -1.6 91 0.5 N 7 9 4 5 1020.8 1020.8 0.0
19/01:30am -0.2 -3.5 -1.6 90 0.5 NNW 6 7 3 4 1020.9 1021.0 0.0
19/01:00am 0.7 -3.1 -0.6 91 0.5 NNW 9 11 5 6 1021.2 1021.3 0.0
19/12:30am 0.8 -2.4 -0.6 90 0.5 N 6 9 3 5 1021.2 1021.3 0.0
19/12:00am 1.3 -2.5 -0.5 88 0.7 NW 9 9 5 5 1021.2 1021.3 0.0
 
Date/Time
EST
Tmp

°C
App
Tmp
°C
Dew
Point
°C
Rel
Hum
%
Delta-T

°C
Wind Press
QNH
hPa
Press
MSL
hPa
Rain
since
9 am
mm
Dir
 
Spd
km/h
Gust
km/h
Spd
kts
Gust
kts
18/11:30pm 1.8 -1.9 -0.3 86 0.8 NW 9 11 5 6 1021.6 1021.6 0.0
18/11:00pm 2.6 -1.4 0.2 84 0.9 NW 11 13 6 7 1021.4 1021.5 0.0
18/10:30pm 3.0 -1.1 0.1 81 1.1 WNW 11 15 6 8 1021.3 1021.4 0.0
18/10:00pm 4.8 1.6 0.8 75 1.6 NNW 7 9 4 5 1021.2 1021.3 0.0
18/09:30pm 5.3 1.4 1.4 76 1.6 WNW 11 15 6 8 1021.1 1021.2 0.0
18/09:00pm 5.7 2.3 1.6 75 1.7 NW 9 15 5 8 1021.0 1021.1 0.0
18/08:30pm 5.4 1.9 1.0 73 1.8 NNW 9 9 5 5 1020.9 1021.0 0.0
18/08:00pm 6.6 3.7 1.3 69 2.2 N 6 11 3 6 1020.7 1020.7 0.0
18/07:30pm 6.6 1.6 1.3 69 2.2 NW 17 22 9 12 1020.4 1020.4 0.0
18/07:00pm 6.5 1.1 1.2 69 2.2 WNW 19 24 10 13 1020.1 1020.1 0.0
18/06:30pm 7.2 3.3 0.9 64 2.6 NW 11 15 6 8 1020.1 1020.1 0.0
18/06:00pm 7.8 2.7 1.0 62 2.8 WNW 17 24 9 13 1019.9 1019.9 0.0
18/05:30pm 8.4 1.6 0.9 59 3.2 WNW 26 37 14 20 1019.4 1019.4 0.0
18/05:00pm 9.0 1.9 1.2 58 3.3 WNW 28 37 15 20 1019.0 1019.0 0.0
18/04:30pm 9.7 1.6 0.9 54 3.7 W 33 43 18 23 1018.8 1018.8 0.0
18/04:00pm 10.2 2.1 1.3 54 3.8 WNW 33 44 18 24 1018.5 1018.5 0.0
18/03:30pm 11.1 3.7 1.9 53 4.1 W 30 43 16 23 1018.4 1018.4 0.0
18/03:00pm 11.6 4.4 3.1 56 3.9 WNW 30 43 16 23 1018.3 1018.3 0.0
18/02:30pm 10.9 3.6 2.2 55 3.9 W 30 39 16 21 1018.1 1018.1 0.0
18/02:00pm 11.7 4.3 1.9 51 4.3 W 30 39 16 21 1018.0 1018.0 0.0
18/01:30pm 11.7 4.7 1.9 51 4.3 W 28 37 15 20 1018.1 1018.1 0.0
18/01:00pm 11.4 4.9 2.4 54 4.0 W 26 37 14 20 1018.3 1018.3 0.0
18/12:30pm 10.7 4.0 1.3 52 4.1 W 26 39 14 21 1018.4 1018.4 0.0
18/12:00pm 10.8 4.3 0.0 47 4.5 W 24 32 13 17 1018.7 1018.7 0.0
18/11:30am 10.1 3.9 2.0 57 3.6 W 24 32 13 17 1018.8 1018.8 0.0
18/11:00am 9.4 3.2 2.0 60 3.2 WNW 24 33 13 18 1019.1 1019.1 0.0
18/10:30am 8.6 1.6 1.7 62 3.0 W 28 37 15 20 1019.0 1019.0 0.0
18/10:00am 8.0 0.3 2.5 68 2.4 W 32 39 17 21 1019.2 1019.2 0.0
18/09:30am 7.1 0.1 2.0 70 2.2 WNW 28 35 15 19 1019.1 - 0.0
18/09:00am 6.1 -1.9 1.6 73 1.9 W 33 43 18 23 1019.1 1019.1 0.2
18/08:30am 5.9 -1.9 2.0 76 1.6 W 32 41 17 22 1019.2 - 0.2
18/08:00am 5.1 -2.9 1.4 77 1.5 W 33 43 18 23 1018.9 - 0.2
18/07:30am 4.5 -3.0 1.0 78 1.4 W 30 39 16 21 1018.5 - 0.2
18/07:00am 3.8 -1.9 0.3 78 1.4 WNW 20 28 11 15 1018.3 - 0.2
18/06:30am 2.9 -2.9 0.1 82 1.1 WNW 20 22 11 12 1017.7 - 0.2
18/06:00am 2.1 -2.8 -0.5 83 1.0 WNW 15 19 8 10 1017.5 1017.5 0.2
18/05:30am 2.6 -1.5 -0.3 81 1.1 WNW 11 17 6 9 1017.2 - 0.2
18/05:00am 3.1 -2.7 0.0 80 1.2 WNW 20 24 11 13 1016.5 - 0.2
18/04:30am 3.7 -1.5 0.1 77 1.4 WNW 17 22 9 12 1016.4 - 0.2
18/04:00am 4.0 -1.5 0.5 78 1.4 NW 19 24 10 13 1016.0 - 0.2
18/03:30am 4.3 -1.2 0.3 75 1.6 WNW 19 24 10 13 1016.0 - 0.2
18/03:00am 4.8 -1.2 0.8 75 1.6 W 22 28 12 15 1015.8 1015.7 0.2
18/02:30am 5.3 -0.8 0.7 72 1.9 WNW 22 32 12 17 1015.7 - 0.2
18/02:00am 5.7 -2.4 1.1 72 1.9 W 33 43 18 23 1015.4 - 0.2
18/01:30am 5.9 -2.0 1.2 72 1.9 W 32 39 17 21 1015.2 - 0.2
18/01:00am 5.7 -0.6 1.6 75 1.7 W 24 32 13 17 1015.3 - 0.2
18/12:30am 6.3 0.0 1.8 73 1.9 W 24 33 13 18 1015.4 - 0.2
18/12:00am 6.8 2.2 1.5 69 2.2 W 15 24 8 13 1015.6 1015.5 0.2
 
Date/Time
EST
Tmp

°C
App
Tmp
°C
Dew
Point
°C
Rel
Hum
%
Delta-T

°C
Wind Press
QNH
hPa
Press
MSL
hPa
Rain
since
9 am
mm
Dir
 
Spd
km/h
Gust
km/h
Spd
kts
Gust
kts
17/11:30pm 7.5 3.7 1.6 66 2.5 NW 11 22 6 12 1015.7 - 0.2
17/11:00pm 7.4 2.5 1.7 67 2.4 WNW 17 24 9 13 1015.8 - 0.2
17/10:30pm 6.6 1.3 1.7 71 2.1 WNW 19 24 10 13 1015.9 - 0.2
17/10:00pm 6.7 0.5 2.0 72 2.0 WNW 24 33 13 18 1015.5 - 0.2
17/09:30pm 6.8 -0.9 2.3 73 1.9 W 32 39 17 21 1015.1 - 0.2
17/09:00pm 7.3 0.0 2.4 71 2.1 W 30 39 16 21 1015.1 1015.0 0.2
17/08:30pm 7.0 2.1 2.3 72 2.0 W 17 24 9 13 1014.8 - 0.2
17/08:00pm 7.2 2.4 2.7 73 2.0 W 17 24 9 13 1014.7 - 0.2
17/07:30pm 7.5 2.5 3.4 75 1.8 W 19 24 10 13 1014.5 - 0.2
17/07:00pm 7.9 2.3 3.4 73 2.0 W 22 32 12 17 1014.1 - 0.2
17/06:30pm 8.3 1.6 3.6 72 2.1 W 28 41 15 22 1013.8 - 0.2
17/06:00pm 9.0 3.8 3.4 68 2.5 WSW 20 30 11 16 1013.6 1013.5 0.2
17/05:30pm 8.5 2.5 3.4 70 2.3 W 24 33 13 18 1013.0 - 0.2
17/05:00pm 8.9 -0.6 4.7 75 1.9 W 44 63 24 34 1012.8 - 0.2
17/04:53pm 10.2 3.0 3.0 61 3.2 W 30 63 16 34 1012.7 - 0.0
17/04:30pm 11.6 5.2 5.3 65 3.0 W 28 37 15 20 1012.4 - 0.0
17/04:00pm 11.1 4.6 4.8 65 3.0 W 28 43 15 23 1012.3 - 0.0
17/03:48pm 9.6 2.2 5.0 73 2.1 W 33 52 18 28 1012.2 - 0.0
17/03:30pm 11.7 3.9 3.0 55 4.0 W 33 46 18 25 1011.9 - 0.0
17/03:03pm 13.5 5.5 3.6 51 4.6 W 35 54 19 29 1011.7 - 0.0
17/03:00pm 13.3 4.5 3.4 51 4.6 W 39 54 21 29 1011.7 1011.5 0.0
17/02:30pm 13.5 4.2 3.0 49 4.8 W 41 54 22 29 1011.8 - 0.0
17/02:01pm 13.0 3.2 2.5 49 4.8 W 43 61 23 33 1012.0 - 0.0
17/02:00pm 13.1 3.1 2.4 48 4.9 W 44 61 24 33 1011.9 - 0.0
17/01:44pm 13.3 3.4 1.6 45 5.2 W 43 61 23 33 1011.9 - 0.0
17/01:30pm 12.3 2.3 2.2 50 4.5 W 44 61 24 33 1012.1 - 0.0
17/01:27pm 13.3 3.7 3.4 51 4.6 W 43 61 23 33 1012.1 - 0.0
17/01:00pm 12.8 3.4 2.6 50 4.6 W 41 54 22 29 1012.2 - 0.0
17/12:30pm 12.1 2.6 1.7 49 4.6 W 41 52 22 28 1012.4 - 0.0
17/12:00pm 12.1 2.9 3.6 56 3.9 W 41 52 22 28 1012.4 1012.3 0.0
17/11:30am 11.3 2.3 2.3 54 4.0 W 39 50 21 27 1012.8 - 0.0
17/11:02am 12.0 4.4 4.0 58 3.7 W 33 52 18 28 1012.9 - 0.0
17/11:00am 11.2 3.1 3.3 58 3.6 W 35 52 19 28 1012.9 - 0.0
17/10:30am 12.2 4.1 5.4 63 3.3 W 37 54 20 29 1012.9 - 0.0
17/10:00am 12.0 3.8 4.5 60 3.5 W 37 52 20 28 1012.9 - 0.0
17/09:30am 11.3 3.8 4.5 63 3.2 W 33 41 18 22 1012.8 - 0.0
17/09:00am 10.0 2.1 4.6 69 2.5 W 35 46 19 25 1013.1 1013.0 0.8
17/08:30am 9.4 1.7 5.4 76 1.9 W 35 46 19 25 1013.5 - 0.8
17/08:00am 8.7 1.6 5.4 80 1.5 W 32 41 17 22 1013.4 - 0.8
17/07:30am 8.0 0.3 5.3 83 1.3 WNW 35 46 19 25 1013.3 - 0.8
17/07:00am 7.6 -0.1 5.4 86 1.0 WNW 35 46 19 25 1012.7 - 0.8
17/06:30am 7.6 -0.1 5.4 86 1.0 WNW 35 46 19 25 1012.3 - 0.8
17/06:27am 7.7 0.5 5.7 87 0.9 WNW 33 44 18 24 1012.3 - 0.8
17/06:00am 7.9 1.7 6.0 88 0.9 WNW 28 37 15 20 1012.1 1012.0 0.8
17/05:30am 8.5 2.7 6.3 86 1.0 WNW 26 35 14 19 1012.0 - 0.8
17/05:07am 8.5 2.8 6.5 87 1.0 WNW 26 35 14 19 1011.9 - 0.8
17/05:00am 8.7 2.2 6.7 87 1.0 WNW 30 41 16 22 1011.7 - 0.8
17/04:58am 8.7 2.2 6.5 86 1.1 WNW 30 41 16 22 1011.7 - 0.8
17/04:40am 8.7 1.9 6.7 87 1.0 W 32 43 17 23 1011.3 - 0.8
17/04:30am 8.5 2.4 6.8 89 0.8 WNW 28 39 15 21 1011.2 - 0.8
17/04:00am 8.8 3.1 6.8 87 1.0 WNW 26 35 14 19 1010.9 - 0.8
17/03:30am 9.0 3.1 7.3 89 0.8 W 28 35 15 19 1010.9 - 0.8
17/03:00am 8.9 2.6 7.4 90 0.7 WNW 30 39 16 21 1010.7 1010.6 0.8
17/02:30am 9.2 2.9 7.5 89 0.8 W 30 37 16 20 1010.6 - 0.8
17/02:00am 9.0 2.1 7.3 89 0.8 WNW 33 44 18 24 1010.5 - 0.8
17/01:30am 9.2 3.4 7.8 91 0.7 W 28 37 15 20 1010.5 - 0.8
17/01:06am 9.3 3.1 7.7 90 0.8 W 30 41 16 22 1010.7 - 0.8
17/01:00am 9.3 3.8 7.7 90 0.8 W 26 39 14 21 1010.6 - 0.8
17/12:30am 9.9 6.6 8.2 89 0.9 WNW 15 22 8 12 1010.9 - 0.8
17/12:00am 9.8 5.6 8.1 89 0.9 W 20 32 11 17 1011.1 1011.0 0.8
 
Date/Time
EST
Tmp

°C
App
Tmp
°C
Dew
Point
°C
Rel
Hum
%
Delta-T

°C
Wind Press
QNH
hPa
Press
MSL
hPa
Rain
since
9 am
mm
Dir
 
Spd
km/h
Gust
km/h
Spd
kts
Gust
kts
16/11:58pm 9.8 5.6 8.1 89 0.9 W 20 32 11 17 1011.0 - 0.8
16/11:30pm 9.3 3.8 7.7 90 0.8 WNW 26 37 14 20 1010.9 - 0.8
16/11:00pm 9.3 2.5 7.7 90 0.8 WNW 33 43 18 23 1010.9 - 0.8
16/10:30pm 9.3 3.8 7.7 90 0.8 WNW 26 37 14 20 1011.1 - 0.8
16/10:00pm 9.3 2.1 7.7 90 0.8 WNW 35 43 19 23 1011.0 - 0.8
16/09:49pm 9.3 4.2 7.6 89 0.8 WNW 24 39 13 21 1011.0 - 0.8
16/09:36pm 9.3 4.2 7.6 89 0.8 W 24 35 13 19 1011.2 - 0.8
16/09:33pm 9.4 3.9 7.7 89 0.8 W 26 35 14 19 1011.3 - 0.8
16/09:30pm 9.5 3.7 7.8 89 0.8 W 28 35 15 19 1011.3 - 0.8
16/09:00pm 9.6 4.2 7.9 89 0.8 W 26 35 14 19 1011.3 1011.2 0.8
16/08:30pm 9.8 4.2 8.6 92 0.6 W 28 39 15 21 1011.1 - 0.8
16/08:14pm 9.9 4.7 8.7 92 0.6 W 26 35 14 19 1010.9 - 0.8
16/08:00pm 10.3 5.4 8.4 88 1.0 W 24 33 13 18 1010.8 - 0.2
16/07:30pm 10.2 4.8 8.0 86 1.1 W 26 33 14 18 1010.5 - 0.2
16/07:00pm 9.9 4.1 7.8 87 1.0 W 28 35 15 19 1010.2 - 0.2
16/06:30pm 9.7 3.8 7.6 87 1.0 W 28 33 15 18 1009.8 - 0.0
16/06:00pm 10.3 3.1 7.7 84 1.3 WNW 35 44 19 24 1009.7 1009.6 0.0

Latest Capital City Observations: Canberra | Sydney | Melbourne | Brisbane | Adelaide | Perth | Hobart | Darwin

Other Formats:

Comma delimited format used in spreadsheet applications
http://www.bom.gov.au/fwo/IDN60903/IDN60903.95716.axf

JavaScript Object Notation format (JSON) in row-major order
http://www.bom.gov.au/fwo/IDN60903/IDN60903.95716.json